»·PEaware :: N6462F KSNA-KBUR

N6462F :: KSNA-KBUR

FLIGHT INFORMATION

Flight Status: Arrived
Operator: Privately registered:
United States
More flights under this callsign
Pilot: Bruce C. (32376)
Aircraft: CESSNA 182 SKYLANE
(C182)
More flights by this aircraft type
Origin: KSNA John Wayne-Orange Co
United States
Destination: KBUR Bob Hope-Burbank
United States
More flights between these airports :: More routes between these airports
Route: +SLI V23 POPPR SMO125 SMO SMO311 SILEX
File this flight plan on PilotEdge
Remarks:
Altitude:
(Current/Filed)
5,000ft
Speed:
(Current/Filed)
100kts
Departed: 18-Nov-20 06:35 PM
Arrived: 18-Nov-20 07:14 PM
Distance/Time
Traveled:
40nm/0:39
Distance/Time
To Go:
Arrived

Flight Plot

Page will automatically refresh every two minutes.


Map Options




Map Legend


Flown Route
Filed Route
Departure Airport
Arrival Airport
Navaid (VOR, NDB)
Fix

Horizontal Profiles

Position Reports

Time Latitude Longitude Heading Altitude Ground
Speed
18-Nov-20 18:20 33.678746 -117.868772 28 59ft 0kts
18-Nov-20 18:22 33.678746 -117.868772 28 59ft 0kts
18-Nov-20 18:23 33.678746 -117.868772 28 59ft 0kts
18-Nov-20 18:24 33.678747 -117.868771 28 59ft 0kts
18-Nov-20 18:25 33.678747 -117.868771 28 59ft 0kts
18-Nov-20 18:26 33.678748 -117.868771 28 59ft 0kts
18-Nov-20 18:27 33.678748 -117.868770 28 59ft 0kts
18-Nov-20 18:28 33.678749 -117.868770 28 59ft 0kts
18-Nov-20 18:29 33.678749 -117.868770 28 59ft 0kts
18-Nov-20 18:30 33.678749 -117.868770 28 59ft 0kts
18-Nov-20 18:31 33.678750 -117.868769 28 59ft 0kts
18-Nov-20 18:32 33.678765 -117.868754 46 59ft 2kts
18-Nov-20 18:33 33.681183 -117.866658 74 59ft 2kts
18-Nov-20 18:34 33.680899 -117.865924 142 59ft 4kts
18-Nov-20 18:35 33.670533 -117.871975 208 212ft 88kts
18-Nov-20 18:36 33.649355 -117.887459 231 910ft 90kts
18-Nov-20 18:37 33.634596 -117.909552 231 1726ft 84kts
18-Nov-20 18:37 33.622310 -117.927968 231 2318ft 84kts
18-Nov-20 18:39 33.622749 -117.955555 320 3080ft 85kts
18-Nov-20 18:39 33.639870 -117.967756 332 3587ft 86kts
18-Nov-20 18:41 33.667601 -117.984524 334 3847ft 109kts
18-Nov-20 18:41 33.690682 -117.998442 333 3837ft 112kts
18-Nov-20 18:43 33.723263 -118.018169 333 3836ft 112kts
18-Nov-20 18:43 33.746581 -118.032303 333 3836ft 112kts
18-Nov-20 18:44 33.774505 -118.049242 333 3836ft 112kts
18-Nov-20 18:46 33.791343 -118.085819 287 3837ft 112kts
18-Nov-20 18:46 33.799019 -118.115828 287 3836ft 112kts
18-Nov-20 18:47 33.808187 -118.151779 287 3836ft 112kts
18-Nov-20 18:48 33.817356 -118.187790 287 3836ft 112kts
18-Nov-20 18:49 33.826477 -118.223662 287 3836ft 112kts
18-Nov-20 18:50 33.835608 -118.259623 287 3836ft 112kts
18-Nov-20 18:51 33.847829 -118.293576 320 3841ft 112kts
18-Nov-20 18:52 33.871899 -118.317453 320 3836ft 112kts
18-Nov-20 18:53 33.895948 -118.341552 320 3836ft 112kts
18-Nov-20 18:54 33.919985 -118.365676 320 3836ft 112kts
18-Nov-20 18:55 33.944054 -118.389852 320 3836ft 112kts
18-Nov-20 18:56 33.968058 -118.413982 320 3836ft 112kts
18-Nov-20 18:57 33.992098 -118.438169 320 3836ft 112kts
18-Nov-20 18:58 34.016448 -118.461794 327 3837ft 112kts
18-Nov-20 18:59 34.042610 -118.482644 326 3836ft 112kts
18-Nov-20 19:00 34.068654 -118.503621 326 3836ft 112kts
18-Nov-20 19:01 34.094607 -118.524554 326 3846ft 112kts
18-Nov-20 19:02 34.120722 -118.545626 326 3532ft 114kts
18-Nov-20 19:03 34.146475 -118.567495 326 3138ft 107kts
18-Nov-20 19:04 34.170833 -118.579337 33 3143ft 96kts
18-Nov-20 19:05 34.192493 -118.556579 43 2864ft 109kts
18-Nov-20 19:06 34.196727 -118.524086 92 2843ft 97kts
18-Nov-20 19:07 34.196985 -118.493343 89 2821ft 80kts
18-Nov-20 19:08 34.198685 -118.468338 77 2646ft 62kts
18-Nov-20 19:09 34.199579 -118.444918 92 2249ft 80kts
18-Nov-20 19:10 34.198546 -118.418217 90 1679ft 77kts
18-Nov-20 19:11 34.198223 -118.393494 90 1147ft 66kts
18-Nov-20 19:12 34.197859 -118.370933 93 808ft 67kts
18-Nov-20 19:13 34.197202 -118.360335 173 781ft 0kts
18-Nov-20 19:14 34.196505 -118.359174 128 781ft 12kts

Navigation Log

Ident Type
Flight plan parsing failed, navigation log unavailable